Time;durP1;ratioP1;P1;durP2;ratioP2;P2;SDS_P1;SDS_P2;PMS_P1;PMS_P2;Temp;Humidity;BMP_temperature;BMP_pressure;BME280_temperature;BME280_humidity;BME280_pressure;Samples;Min_cycle;Max_cycle;Signal;HPM_P1;HPM_P2
2023/10/17 00:02:07;;;;;;;1999.90;999.90;;;3.40;99.90;;;;;;5095683;28;20037;-72
2023/10/17 00:04:33;;;;;;;1999.90;999.90;;;3.30;99.90;;;;;;5095637;28;20032;-71
2023/10/17 00:07:02;;;;;;;1999.90;999.90;;;3.30;99.90;;;;;;5095398;28;20042;-72
2023/10/17 00:09:36;;;;;;;1999.90;999.90;;;3.30;99.90;;;;;;5095113;28;20062;-72
2023/10/17 00:12:25;;;;;;;1999.90;999.90;;;3.20;99.90;;;;;;5095677;28;20028;-72
2023/10/17 00:17:19;;;;;;;1999.90;999.90;;;3.20;99.90;;;;;;5095199;28;20111;-72
2023/10/17 00:19:45;;;;;;;1999.90;999.90;;;3.10;99.90;;;;;;5095336;28;20107;-72
2023/10/17 00:22:18;;;;;;;1999.90;999.90;;;3.00;99.90;;;;;;5095132;28;20075;-72
2023/10/17 00:24:46;;;;;;;1999.90;999.90;;;3.00;99.90;;;;;;5076736;28;20047;-72
2023/10/17 00:27:13;;;;;;;1999.90;999.90;;;3.00;99.90;;;;;;5094890;28;20032;-72
2023/10/17 00:29:38;;;;;;;1999.90;999.90;;;3.00;99.90;;;;;;5095518;28;20033;-72
2023/10/17 00:32:04;;;;;;;1999.90;999.90;;;3.00;99.90;;;;;;5095260;28;20047;-72
2023/10/17 00:34:30;;;;;;;1999.90;999.90;;;3.00;99.90;;;;;;5094750;28;20127;-72
2023/10/17 00:37:05;;;;;;;1999.90;999.90;;;2.90;99.90;;;;;;5095017;28;20040;-72
2023/10/17 00:39:32;;;;;;;1999.90;999.90;;;2.90;99.90;;;;;;5095323;28;20036;-72
2023/10/17 00:44:33;;;;;;;1999.90;999.90;;;2.80;99.90;;;;;;5094356;28;20051;-72
2023/10/17 00:47:00;;;;;;;1999.90;999.90;;;2.80;99.90;;;;;;5094509;28;20520;-72
2023/10/17 00:49:29;;;;;;;1999.90;999.90;;;2.80;99.90;;;;;;5095288;28;20485;-71
2023/10/17 00:51:56;;;;;;;1999.90;999.90;;;2.70;99.90;;;;;;5095019;28;20553;-71
2023/10/17 00:54:25;;;;;;;1999.90;999.90;;;2.70;99.90;;;;;;5076616;28;20033;-71
2023/10/17 00:57:00;;;;;;;1999.90;999.90;;;2.70;99.90;;;;;;5094922;28;20040;-71
2023/10/17 00:59:29;;;;;;;1999.90;999.90;;;2.70;99.90;;;;;;5094879;28;20032;-72
2023/10/17 01:01:56;;;;;;;1999.90;999.90;;;2.60;99.90;;;;;;5094890;28;20461;-72
2023/10/17 01:04:24;;;;;;;1999.90;999.90;;;2.60;99.90;;;;;;5094868;28;20078;-71
2023/10/17 01:07:05;;;;;;;1999.90;999.90;;;2.60;99.90;;;;;;5076289;28;20040;-72
2023/10/17 01:09:34;;;;;;;1999.90;999.90;;;2.60;99.90;;;;;;5095033;28;20136;-71
2023/10/17 01:12:01;;;;;;;1999.90;999.90;;;2.60;99.90;;;;;;5076470;28;20730;-71
2023/10/17 01:14:30;;;;;;;1999.90;999.90;;;2.70;99.90;;;;;;5094765;28;20086;-71
2023/10/17 01:16:57;;;;;;;1999.90;999.90;;;2.60;99.90;;;;;;5094544;28;20036;-71
2023/10/17 01:19:23;;;;;;;1999.90;999.90;;;2.60;99.90;;;;;;5094206;28;20027;-71
2023/10/17 01:21:49;;;;;;;1999.90;999.90;;;2.60;99.90;;;;;;5096385;28;20089;-71
2023/10/17 01:24:15;;;;;;;1999.90;999.90;;;2.60;99.90;;;;;;5097969;28;20123;-72
2023/10/17 01:26:45;;;;;;;1999.90;999.90;;;2.60;99.90;;;;;;5098126;28;20040;-71
2023/10/17 01:29:11;;;;;;;1999.90;999.90;;;2.60;99.90;;;;;;5079644;28;20030;-71
2023/10/17 01:31:59;;;;;;;1999.90;999.90;;;2.50;99.90;;;;;;5079910;28;20039;-72
2023/10/17 01:34:24;;;;;;;1999.90;999.90;;;2.60;99.90;;;;;;5097469;28;20575;-71
2023/10/17 01:36:50;;;;;;;1999.90;999.90;;;2.60;99.90;;;;;;5079497;28;20033;-71
2023/10/17 01:39:16;;;;;;;1999.90;999.90;;;2.40;99.90;;;;;;5098285;28;20025;-71
2023/10/17 01:41:50;;;;;;;1999.90;999.90;;;2.40;99.90;;;;;;5098181;28;20032;-71
2023/10/17 01:44:16;;;;;;;1999.90;999.90;;;2.40;99.90;;;;;;5098063;28;20028;-72
2023/10/17 01:46:43;;;;;;;1999.90;999.90;;;2.30;99.90;;;;;;5097828;28;20490;-71
2023/10/17 01:49:12;;;;;;;1999.90;999.90;;;2.30;99.90;;;;;;5085037;28;20560;-71
2023/10/17 01:51:42;;;;;;;1999.90;999.90;;;2.30;99.90;;;;;;5077581;28;20033;-71
2023/10/17 01:54:08;;;;;;;1999.90;999.90;;;2.20;99.90;;;;;;5077356;28;20419;-71
2023/10/17 01:56:39;;;;;;;1999.90;999.90;;;2.20;99.90;;;;;;5077321;28;20445;-71
2023/10/17 01:59:17;;;;;;;1999.90;999.90;;;2.20;99.90;;;;;;5077504;28;20029;-71
2023/10/17 02:01:43;;;;;;;1999.90;999.90;;;2.10;99.90;;;;;;5077640;28;20117;-72
2023/10/17 02:04:18;;;;;;;1999.90;999.90;;;2.10;99.90;;;;;;5077463;28;20112;-71
2023/10/17 02:06:44;;;;;;;1999.90;999.90;;;2.20;99.90;;;;;;5077400;28;20060;-71
2023/10/17 02:12:00;;;;;;;1999.90;999.90;;;2.20;99.90;;;;;;5074431;28;20037;-71
2023/10/17 02:14:26;;;;;;;1999.90;999.90;;;2.10;99.90;;;;;;5077398;28;20044;-71
2023/10/17 02:16:55;;;;;;;1999.90;999.90;;;2.30;99.90;;;;;;5077171;28;20523;-72
2023/10/17 02:19:23;;;;;;;1999.90;999.90;;;2.30;99.90;;;;;;5076581;28;20051;-71
2023/10/17 02:21:50;;;;;;;1999.90;999.90;;;2.20;99.90;;;;;;5077162;28;20486;-72
2023/10/17 02:24:22;;;;;;;1999.90;999.90;;;2.00;99.90;;;;;;5076788;28;20668;-71
2023/10/17 02:26:58;;;;;;;1999.90;999.90;;;2.00;99.90;;;;;;5077133;28;20033;-71
2023/10/17 02:29:38;;;;;;;1999.90;999.90;;;2.00;99.90;;;;;;5077290;28;20033;-71
2023/10/17 02:32:11;;;;;;;1999.90;999.90;;;2.00;99.90;;;;;;5076832;28;20032;-71
2023/10/17 02:34:37;;;;;;;1999.90;999.90;;;2.10;99.90;;;;;;5076332;28;20027;-71
2023/10/17 02:37:04;;;;;;;1999.90;999.90;;;2.10;99.90;;;;;;5076869;28;20033;-71
2023/10/17 02:39:29;;;;;;;1999.90;999.90;;;2.10;99.90;;;;;;5077167;28;20518;-72
2023/10/17 02:41:58;;;;;;;1999.90;999.90;;;2.10;99.90;;;;;;5077035;28;20067;-71
2023/10/17 02:44:24;;;;;;;1999.90;999.90;;;2.10;99.90;;;;;;5076735;28;20036;-71
2023/10/17 02:46:50;;;;;;;1999.90;999.90;;;2.10;99.90;;;;;;5058335;28;20060;-71
2023/10/17 02:49:16;;;;;;;1999.90;999.90;;;2.00;99.90;;;;;;5076946;28;20471;-71
2023/10/17 02:51:42;;;;;;;1999.90;999.90;;;2.00;99.90;;;;;;5058477;28;20064;-70
2023/10/17 02:54:16;;;;;;;1999.90;999.90;;;2.00;99.90;;;;;;5076636;28;20029;-71
2023/10/17 02:56:51;;;;;;;1999.90;999.90;;;1.90;99.90;;;;;;5076568;28;20039;-71
2023/10/17 02:59:17;;;;;;;1999.90;999.90;;;2.00;99.90;;;;;;5076817;28;20029;-72
2023/10/17 03:01:44;;;;;;;1999.90;999.90;;;2.00;99.90;;;;;;5076733;28;20899;-71
2023/10/17 03:04:17;;;;;;;1999.90;999.90;;;2.00;99.90;;;;;;5076410;28;20517;-71
2023/10/17 03:06:44;;;;;;;1999.90;999.90;;;2.10;99.90;;;;;;5076363;28;20482;-71
2023/10/17 03:09:16;;;;;;;1999.90;999.90;;;2.20;99.90;;;;;;5076466;28;20104;-71
2023/10/17 03:11:50;;;;;;;1999.90;999.90;;;2.10;99.90;;;;;;5076642;28;20029;-71
2023/10/17 03:14:19;;;;;;;1999.90;999.90;;;2.20;99.90;;;;;;5076466;28;20102;-73
2023/10/17 03:16:54;;;;;;;1999.90;999.90;;;2.20;99.90;;;;;;5075984;28;20277;-73
2023/10/17 03:19:27;;;;;;;1999.90;999.90;;;2.20;99.90;;;;;;5075599;28;20035;-73
2023/10/17 03:21:54;;;;;;;1999.90;999.90;;;2.20;99.90;;;;;;5076160;28;20901;-73
2023/10/17 03:24:28;;;;;;;1999.90;999.90;;;2.20;99.90;;;;;;5057397;28;20146;-73
2023/10/17 03:26:55;;;;;;;1999.90;999.90;;;2.20;99.90;;;;;;5076184;28;20155;-72
2023/10/17 03:29:23;;;;;;;1999.90;999.90;;;2.20;99.90;;;;;;5057753;28;20089;-73
2023/10/17 03:31:58;;;;;;;1999.90;999.90;;;2.20;99.90;;;;;;5076130;28;20506;-72
2023/10/17 03:35:10;;;;;;;1999.90;999.90;;;2.30;99.90;;;;;;5076005;28;20033;-73
2023/10/17 03:39:52;;;;;;;1999.90;999.90;;;2.40;99.90;;;;;;5072951;28;20438;-73
2023/10/17 03:42:53;;;;;;;1999.90;999.90;;;2.40;99.90;;;;;;5057431;28;20132;-73
2023/10/17 03:45:16;;;;;;;1999.90;999.90;;;2.40;99.90;;;;;;5074332;28;20041;-73
2023/10/17 03:47:54;;;;;;;1999.90;999.90;;;2.50;99.90;;;;;;5057240;28;20083;-73
2023/10/17 03:53:15;;;;;;;1999.90;999.90;;;2.50;99.90;;;;;;5076033;28;20041;-73
2023/10/17 03:55:43;;;;;;;1999.90;999.90;;;2.50;99.90;;;;;;5075572;28;20475;-73
2023/10/17 04:00:54;;;;;;;1999.90;999.90;;;2.50;99.90;;;;;;5072565;28;20037;-74
2023/10/17 04:03:21;;;;;;;1999.90;999.90;;;2.50;99.90;;;;;;5075832;28;20076;-73
2023/10/17 04:08:35;;;;;;;1999.90;999.90;;;2.70;99.90;;;;;;5072451;28;20033;-74
2023/10/17 04:11:36;;;;;;;1999.90;999.90;;;2.80;99.90;;;;;;5075457;28;20029;-74
2023/10/17 04:14:00;;;;;;;1999.90;999.90;;;2.70;99.90;;;;;;5071966;28;20570;-73
2023/10/17 04:16:33;;;;;;;1999.90;999.90;;;2.80;99.90;;;;;;5075448;28;20068;-73
2023/10/17 04:19:07;;;;;;;1999.90;999.90;;;3.00;99.90;;;;;;5056697;28;20537;-73
2023/10/17 04:21:38;;;;;;;1999.90;999.90;;;3.10;99.90;;;;;;5075441;28;20043;-74
2023/10/17 04:24:07;;;;;;;1999.90;999.90;;;3.00;99.90;;;;;;5075601;28;20029;-73
2023/10/17 04:26:42;;;;;;;1999.90;999.90;;;3.00;99.90;;;;;;5074786;28;20095;-73
2023/10/17 04:29:11;;;;;;;1999.90;999.90;;;3.10;99.90;;;;;;5075449;28;20116;-73
2023/10/17 04:31:43;;;;;;;1999.90;999.90;;;3.10;99.90;;;;;;5075184;28;20043;-73
2023/10/17 04:34:14;;;;;;;1999.90;999.90;;;3.20;99.90;;;;;;5074946;28;20029;-73
2023/10/17 04:36:41;;;;;;;1999.90;999.90;;;3.30;99.90;;;;;;5075122;28;20530;-74
2023/10/17 04:44:50;;;;;;;1999.90;999.90;;;3.30;99.90;;;;;;5073238;28;20164;-73
2023/10/17 04:47:26;;;;;;;1999.90;999.90;;;3.30;99.90;;;;;;5074902;28;20025;-73
2023/10/17 04:49:55;;;;;;;1999.90;999.90;;;3.30;99.90;;;;;;5075064;28;20033;-73
2023/10/17 04:52:28;;;;;;;1999.90;999.90;;;3.30;99.90;;;;;;5056585;28;20044;-75
2023/10/17 04:54:58;;;;;;;1999.90;999.90;;;3.30;99.90;;;;;;5074807;28;20029;-73
2023/10/17 04:57:47;;;;;;;1999.90;999.90;;;3.30;99.90;;;;;;5073513;28;20082;-74
2023/10/17 05:00:11;;;;;;;1999.90;999.90;;;3.30;99.90;;;;;;5074473;28;20176;-73
2023/10/17 05:02:38;;;;;;;1999.90;999.90;;;3.30;99.90;;;;;;5074554;28;20060;-73
2023/10/17 06:18:32;;;;;;;1999.90;999.90;;;3.70;99.90;;;;;;5074006;28;20041;-71
2023/10/17 06:21:07;;;;;;;1999.90;999.90;;;3.70;99.90;;;;;;5058991;28;20033;-71
2023/10/17 06:30:27;;;;;;;1999.90;999.90;;;3.90;99.90;;;;;;5077689;28;20036;-71
2023/10/17 06:32:04;;;;;;;1999.90;999.90;;;4.00;99.90;;;;;;5076416;28;20025;-71
2023/10/17 06:34:31;;;;;;;1999.90;999.90;;;4.00;99.90;;;;;;5077102;28;20025;-71
2023/10/17 06:37:09;;;;;;;1999.90;999.90;;;4.00;99.90;;;;;;5076815;28;20033;-72
2023/10/17 06:39:38;;;;;;;1999.90;999.90;;;4.00;99.90;;;;;;5076937;28;20040;-71
2023/10/17 06:42:39;;;;;;;1999.90;999.90;;;4.10;99.90;;;;;;5076920;28;20061;-72
2023/10/17 06:45:07;;;;;;;1999.90;999.90;;;4.20;99.90;;;;;;5072459;28;20033;-71
2023/10/17 06:47:47;;;;;;;1999.90;999.90;;;4.20;99.90;;;;;;5076790;28;20091;-71
2023/10/17 06:52:54;;;;;;;1999.90;999.90;;;4.30;99.90;;;;;;5076891;28;20379;-72
2023/10/17 06:55:22;;;;;;;1999.90;999.90;;;4.30;99.90;;;;;;5058020;28;20071;-71
2023/10/17 06:57:52;;;;;;;1999.90;999.90;;;4.50;99.90;;;;;;5058126;28;20510;-72
2023/10/17 07:00:42;;;;;;;1999.90;999.90;;;4.50;99.90;;;;;;5076608;28;20079;-71
2023/10/17 07:03:04;;;;;;;1999.90;999.90;;;4.50;99.90;;;;;;5075683;28;20033;-71
2023/10/17 07:05:35;;;;;;;1999.90;999.90;;;4.60;99.90;;;;;;5076402;28;20033;-71
2023/10/17 07:08:01;;;;;;;1999.90;999.90;;;4.60;99.90;;;;;;5076433;28;20481;-72
2023/10/17 07:13:32;;;;;;;1999.90;999.90;;;4.80;99.90;;;;;;5096332;28;20041;-72
2023/10/17 07:16:16;;;;;;;1999.90;999.90;;;4.90;99.90;;;;;;5096320;28;20112;-72
2023/10/17 07:18:44;;;;;;;1999.90;999.90;;;5.10;99.90;;;;;;5096067;28;20040;-72
2023/10/17 07:23:45;;;;;;;1999.90;999.90;;;5.30;99.90;;;;;;5095929;28;20501;-71
2023/10/17 07:26:38;;;;;;;1999.90;999.90;;;5.50;99.90;;;;;;5077997;28;20060;-71
2023/10/17 07:29:05;;;;;;;1999.90;999.90;;;5.50;99.90;;;;;;5096638;28;20474;-72
2023/10/17 07:31:31;;;;;;;1999.90;999.90;;;5.50;99.90;;;;;;5096338;28;20074;-72
2023/10/17 07:36:36;;;;;;;1999.90;999.90;;;5.80;99.90;;;;;;5080550;28;20487;-72
2023/10/17 07:39:07;;;;;;;1999.90;999.90;;;5.90;99.90;;;;;;5075891;28;20558;-72
2023/10/17 07:41:36;;;;;;;1999.90;999.90;;;5.90;99.90;;;;;;5076107;28;20426;-72
2023/10/17 07:44:08;;;;;;;1999.90;999.90;;;5.90;99.90;;;;;;5075660;28;20479;-72
2023/10/17 07:46:34;;;;;;;1999.90;999.90;;;6.10;99.90;;;;;;5056359;28;20033;-72
2023/10/17 07:49:04;;;;;;;1999.90;999.90;;;6.10;99.90;;;;;;5075893;28;20037;-71
2023/10/17 07:51:30;;;;;;;1999.90;999.90;;;6.10;99.90;;;;;;5075687;28;20025;-78
2023/10/17 07:53:56;;;;;;;1999.90;999.90;;;6.20;99.90;;;;;;5063537;28;20043;-72
2023/10/17 07:56:21;;;;;;;1999.90;999.90;;;6.30;99.90;;;;;;5091794;28;20036;-75
2023/10/17 07:59:08;;;;;;;1999.90;999.90;;;6.50;99.90;;;;;;5092651;28;20040;-71
2023/10/17 08:01:44;;;;;;;1999.90;999.90;;;6.60;99.90;;;;;;5092891;28;20036;-72
2023/10/17 08:06:46;;;;;;;1999.90;999.90;;;6.70;99.90;;;;;;5070867;28;20041;-72
2023/10/17 08:11:51;;;;;;;1999.90;999.90;;;7.10;99.90;;;;;;5098193;28;20476;-71
2023/10/17 08:14:26;;;;;;;1999.90;999.90;;;7.20;99.90;;;;;;5115709;28;20067;-72
2023/10/17 08:16:55;;;;;;;1999.90;999.90;;;7.30;99.90;;;;;;5111304;28;20094;-74
2023/10/17 08:19:29;;;;;;;1999.90;999.90;;;7.50;99.90;;;;;;5076931;28;20039;-72
2023/10/17 08:24:26;;;;;;;1999.90;999.90;;;7.80;99.90;;;;;;5095013;28;20060;-73
2023/10/17 08:27:13;;;;;;;1999.90;999.90;;;7.80;99.90;;;;;;5095228;28;20024;-72
2023/10/17 08:29:42;;;;;;;1999.90;999.90;;;8.00;99.90;;;;;;5095370;28;20115;-72
2023/10/17 08:34:50;;;;;;;1999.90;999.90;;;8.20;99.90;;;;;;5093774;28;20503;-73
2023/10/17 08:37:26;;;;;;;1999.90;999.90;;;8.20;99.90;;;;;;5094757;28;20036;-71
2023/10/17 08:39:51;;;;;;;1999.90;999.90;;;8.30;99.90;;;;;;5073022;28;20509;-72
2023/10/17 08:44:59;;;;;;;1999.90;999.90;;;8.40;99.90;;;;;;5114294;28;20036;-72
2023/10/17 08:47:27;;;;;;;1999.90;999.90;;;8.50;99.90;;;;;;5114888;28;20035;-72
2023/10/17 08:49:55;;;;;;;1999.90;999.90;;;8.70;99.90;;;;;;5115311;28;20090;-72
2023/10/17 08:52:28;;;;;;;1999.90;999.90;;;8.80;99.90;;;;;;5115193;28;20103;-72
2023/10/17 08:54:54;;;;;;;1999.90;999.90;;;8.90;99.90;;;;;;5114905;28;20055;-73
2023/10/17 08:57:20;;;;;;;1999.90;999.90;;;9.00;99.90;;;;;;5114930;28;20119;-73
2023/10/17 09:04:45;;;;;;;1999.90;999.90;;;9.30;99.90;;;;;;5083767;28;20459;-74
2023/10/17 09:07:19;;;;;;;1999.90;999.90;;;9.40;99.90;;;;;;5088044;28;20905;-73
2023/10/17 09:09:47;;;;;;;1999.90;999.90;;;9.70;99.90;;;;;;5072493;28;20127;-74
2023/10/17 09:12:19;;;;;;;1999.90;999.90;;;9.90;99.90;;;;;;5073274;28;20108;-73
2023/10/17 09:14:49;;;;;;;1999.90;999.90;;;9.90;99.90;;;;;;5076822;28;20028;-80
2023/10/17 09:19:51;;;;;;;1999.90;999.90;;;10.00;99.90;;;;;;5091404;28;20075;-72
2023/10/17 09:22:30;;;;;;;1999.90;999.90;;;10.10;99.90;;;;;;5092744;28;20067;-72
2023/10/17 09:24:56;;;;;;;1999.90;999.90;;;10.30;99.90;;;;;;5073614;28;20119;-75
2023/10/17 09:27:22;;;;;;;1999.90;999.90;;;10.40;99.90;;;;;;5073269;28;20025;-72
2023/10/17 09:29:50;;;;;;;1999.90;999.90;;;10.30;99.90;;;;;;5073365;28;20083;-71
2023/10/17 09:32:42;;;;;;;1999.90;999.90;;;10.40;99.90;;;;;;5073920;28;20081;-74
2023/10/17 09:35:16;;;;;;;1999.90;999.90;;;10.40;99.90;;;;;;5070100;28;20049;-71
2023/10/17 09:37:44;;;;;;;1999.90;999.90;;;10.40;99.90;;;;;;5055337;28;20482;-72
2023/10/17 09:40:12;;;;;;;1999.90;999.90;;;10.50;99.90;;;;;;5073747;28;20041;-71
2023/10/17 09:42:40;;;;;;;1999.90;999.90;;;10.40;99.90;;;;;;5056780;28;20119;-75
2023/10/17 09:45:09;;;;;;;1999.90;999.90;;;10.50;99.90;;;;;;5076464;28;20040;-74
2023/10/17 09:47:39;;;;;;;1999.90;999.90;;;10.50;99.90;;;;;;5076661;28;20041;-71
2023/10/17 09:50:08;;;;;;;1999.90;999.90;;;10.50;99.90;;;;;;5077113;28;20495;-74
2023/10/17 09:52:34;;;;;;;1999.90;999.90;;;10.50;99.90;;;;;;5077185;28;20064;-72
2023/10/17 09:55:05;;;;;;;1999.90;999.90;;;10.40;99.90;;;;;;5076965;28;20031;-72
2023/10/17 09:57:33;;;;;;;1999.90;999.90;;;10.80;99.90;;;;;;5076988;28;20039;-71
2023/10/17 10:00:05;;;;;;;1999.90;999.90;;;11.00;99.90;;;;;;5077172;28;20036;-73
2023/10/17 10:02:34;;;;;;;1999.90;999.90;;;11.10;99.90;;;;;;5077117;28;20044;-71
2023/10/17 10:05:19;;;;;;;1999.90;999.90;;;11.10;99.90;;;;;;5076750;28;20091;-73
2023/10/17 10:07:44;;;;;;;1999.90;999.90;;;11.30;99.90;;;;;;5076743;28;20037;-74
2023/10/17 10:10:30;;;;;;;1999.90;999.90;;;11.30;99.90;;;;;;5112177;28;20036;-72
2023/10/17 10:13:01;;;;;;;1999.90;999.90;;;11.30;99.90;;;;;;5116825;28;20520;-73
2023/10/17 10:15:52;;;;;;;1999.90;999.90;;;11.10;99.90;;;;;;5115258;28;20035;-73
2023/10/17 10:18:40;;;;;;;1999.90;999.90;;;11.30;99.90;;;;;;5115901;28;20039;-73
2023/10/17 10:21:07;;;;;;;1999.90;999.90;;;11.30;99.90;;;;;;5097013;28;20033;-73
2023/10/17 10:23:39;;;;;;;1999.90;999.90;;;11.00;99.90;;;;;;5115220;28;20056;-73
2023/10/17 10:26:19;;;;;;;1999.90;999.90;;;11.10;99.90;;;;;;5117810;28;20036;-73
2023/10/17 10:28:52;;;;;;;1999.90;999.90;;;11.20;99.90;;;;;;5117504;28;20111;-72
2023/10/17 10:31:21;;;;;;;1999.90;999.90;;;11.30;99.90;;;;;;5117565;28;20043;-73
2023/10/17 10:33:49;;;;;;;1999.90;999.90;;;11.70;99.90;;;;;;5117003;28;20582;-71
2023/10/17 10:36:24;;;;;;;1999.90;999.90;;;11.60;99.90;;;;;;5116503;28;20032;-72
2023/10/17 10:38:54;;;;;;;1999.90;999.90;;;11.70;99.90;;;;;;5117390;28;20103;-73
2023/10/17 10:41:22;;;;;;;1999.90;999.90;;;11.70;99.90;;;;;;5117148;28;20036;-71
2023/10/17 10:43:48;;;;;;;1999.90;999.90;;;11.80;99.90;;;;;;5117042;28;20056;-73
2023/10/17 10:46:15;;;;;;;1999.90;999.90;;;11.90;99.90;;;;;;5117038;28;20028;-74
2023/10/17 10:48:56;;;;;;;1999.90;999.90;;;11.90;99.90;;;;;;5117154;28;20081;-74
2023/10/17 10:51:24;;;;;;;1999.90;999.90;;;11.80;99.90;;;;;;5117350;28;20109;-74
2023/10/17 10:53:56;;;;;;;1999.90;999.90;;;11.80;99.90;;;;;;5115508;27;20058;-74
2023/10/17 10:56:24;;;;;;;1999.90;999.90;;;11.70;99.90;;;;;;5116836;28;20107;-75
2023/10/17 10:58:53;;;;;;;1999.90;999.90;;;11.80;99.90;;;;;;5116899;28;20469;-75
2023/10/17 11:01:19;;;;;;;1999.90;999.90;;;11.90;99.90;;;;;;5116638;28;20129;-75
2023/10/17 11:03:48;;;;;;;1999.90;999.90;;;11.90;99.90;;;;;;5116571;28;20115;-73
2023/10/17 11:06:19;;;;;;;1999.90;999.90;;;11.80;99.90;;;;;;5116506;28;20028;-75
2023/10/17 11:08:46;;;;;;;1999.90;999.90;;;12.00;99.90;;;;;;5116901;28;20062;-73
2023/10/17 11:11:16;;;;;;;1999.90;999.90;;;12.20;99.90;;;;;;5116627;28;20028;-73
2023/10/17 11:13:48;;;;;;;1999.90;999.90;;;12.20;99.90;;;;;;5116087;28;20510;-74
2023/10/17 11:16:21;;;;;;;1999.90;999.90;;;12.10;99.90;;;;;;5097799;28;20036;-73
2023/10/17 11:18:47;;;;;;;1999.90;999.90;;;12.10;99.90;;;;;;5116539;28;20039;-72
2023/10/17 11:21:17;;;;;;;1999.90;999.90;;;12.10;99.90;;;;;;5116604;28;20032;-73
2023/10/17 11:23:50;;;;;;;1999.90;999.90;;;12.10;99.90;;;;;;5115859;28;20044;-72
2023/10/17 11:26:19;;;;;;;1999.90;999.90;;;12.00;99.90;;;;;;5116385;28;20082;-73
2023/10/17 11:28:51;;;;;;;1999.90;999.90;;;12.20;99.90;;;;;;5116191;28;20532;-72
2023/10/17 11:31:24;;;;;;;1999.90;999.90;;;12.20;99.90;;;;;;5116689;28;20028;-72
2023/10/17 11:34:06;;;;;;;1999.90;999.90;;;12.20;99.90;;;;;;5116260;28;20063;-72
2023/10/17 11:36:47;;;;;;;1999.90;999.90;;;12.30;99.90;;;;;;5115933;28;20028;-72
2023/10/17 11:39:16;;;;;;;1999.90;999.90;;;12.30;99.90;;;;;;5097594;28;20032;-75
2023/10/17 11:41:48;;;;;;;1999.90;999.90;;;12.10;99.90;;;;;;5116120;28;20115;-71
2023/10/17 11:44:15;;;;;;;1999.90;999.90;;;12.30;99.90;;;;;;5115960;28;20028;-72
2023/10/17 11:46:55;;;;;;;1999.90;999.90;;;12.20;99.90;;;;;;5097460;28;20039;-73
2023/10/17 11:49:28;;;;;;;1999.90;999.90;;;12.20;99.90;;;;;;5116208;28;20532;-73
2023/10/17 11:52:12;;;;;;;1999.90;999.90;;;12.20;99.90;;;;;;5116254;28;20032;-73
2023/10/17 11:55:00;;;;;;;1999.90;999.90;;;12.30;99.90;;;;;;5116160;28;20464;-72
2023/10/17 11:57:27;;;;;;;1999.90;999.90;;;12.40;99.90;;;;;;5115978;28;20410;-73
2023/10/17 12:00:07;;;;;;;1999.90;999.90;;;12.40;99.90;;;;;;5097780;28;20035;-73
2023/10/17 12:02:33;;;;;;;1999.90;999.90;;;12.40;99.90;;;;;;5115897;28;20048;-74
2023/10/17 12:05:03;;;;;;;1999.90;999.90;;;12.50;99.90;;;;;;5096886;28;20066;-73
2023/10/17 12:07:31;;;;;;;1999.90;999.90;;;12.40;99.90;;;;;;5115604;28;20559;-73
2023/10/17 12:10:04;;;;;;;1999.90;999.90;;;12.50;99.90;;;;;;5115600;28;20478;-74
2023/10/17 12:12:30;;;;;;;1999.90;999.90;;;12.60;99.90;;;;;;5115969;28;20093;-73
2023/10/17 12:14:57;;;;;;;1999.90;999.90;;;12.80;99.90;;;;;;5115580;28;20024;-77
2023/10/17 12:17:23;;;;;;;1999.90;999.90;;;12.80;99.90;;;;;;5115742;28;20116;-74
2023/10/17 12:19:51;;;;;;;1999.90;999.90;;;12.90;99.90;;;;;;5115847;28;20038;-73
2023/10/17 12:22:16;;;;;;;1999.90;999.90;;;13.00;99.90;;;;;;5115694;28;20804;-74
2023/10/17 12:24:42;;;;;;;1999.90;999.90;;;13.00;99.90;;;;;;5114907;28;20147;-74
2023/10/17 12:27:12;;;;;;;1999.90;999.90;;;13.10;99.90;;;;;;5107119;28;20127;-71
2023/10/17 12:29:41;;;;;;;1999.90;999.90;;;13.30;99.90;;;;;;5075583;28;20028;-72
2023/10/17 12:32:10;;;;;;;1999.90;999.90;;;13.40;99.90;;;;;;5095193;28;20552;-72
2023/10/17 12:34:42;;;;;;;1999.90;999.90;;;13.50;99.90;;;;;;5094759;28;20032;-72
2023/10/17 12:37:11;;;;;;;1999.90;999.90;;;13.60;99.90;;;;;;5094840;28;20107;-73
2023/10/17 12:39:40;;;;;;;1999.90;999.90;;;13.70;99.90;;;;;;5094596;28;20025;-72
2023/10/17 12:42:05;;;;;;;1999.90;999.90;;;13.80;99.90;;;;;;5094839;28;20127;-72
2023/10/17 12:44:31;;;;;;;1999.90;999.90;;;13.60;99.90;;;;;;5094794;28;20028;-72
2023/10/17 12:46:57;;;;;;;1999.90;999.90;;;13.40;99.90;;;;;;5076565;28;20039;-72
2023/10/17 12:49:22;;;;;;;1999.90;999.90;;;13.10;99.90;;;;;;5094476;28;20037;-72
2023/10/17 12:51:48;;;;;;;1999.90;999.90;;;13.20;99.90;;;;;;5094969;28;20037;-72
2023/10/17 12:54:14;;;;;;;1999.90;999.90;;;13.00;99.90;;;;;;5094948;28;20375;-72
2023/10/17 12:56:40;;;;;;;1999.90;999.90;;;13.10;99.90;;;;;;5094652;28;20035;-72
2023/10/17 12:59:12;;;;;;;1999.90;999.90;;;13.20;99.90;;;;;;5095041;28;20151;-72
2023/10/17 13:01:38;;;;;;;1999.90;999.90;;;13.30;99.90;;;;;;5094996;28;20101;-73
2023/10/17 13:04:04;;;;;;;1999.90;999.90;;;13.30;99.90;;;;;;5076003;28;20033;-72
2023/10/17 13:06:29;;;;;;;1999.90;999.90;;;13.30;99.90;;;;;;5094563;28;20036;-73
2023/10/17 13:08:59;;;;;;;1999.90;999.90;;;13.30;99.90;;;;;;5094841;28;20082;-72
2023/10/17 13:11:25;;;;;;;1999.90;999.90;;;13.40;99.90;;;;;;5094300;28;20036;-71
2023/10/17 13:13:50;;;;;;;1999.90;999.90;;;13.50;99.90;;;;;;5094394;28;20036;-71
2023/10/17 13:16:16;;;;;;;1999.90;999.90;;;13.60;99.90;;;;;;5093961;28;20035;-71
2023/10/17 13:18:41;;;;;;;1999.90;999.90;;;13.80;99.90;;;;;;5094031;28;20036;-71
2023/10/17 13:21:13;;;;;;;1999.90;999.90;;;13.70;99.90;;;;;;5094638;28;20048;-72
2023/10/17 13:23:39;;;;;;;1999.90;999.90;;;13.60;99.90;;;;;;5093919;28;20046;-72
2023/10/17 13:26:11;;;;;;;1999.90;999.90;;;13.60;99.90;;;;;;5094428;28;20032;-72
2023/10/17 13:28:38;;;;;;;1999.90;999.90;;;13.50;99.90;;;;;;5094596;28;20032;-72
2023/10/17 13:31:14;;;;;;;1999.90;999.90;;;13.30;99.90;;;;;;5094353;28;20036;-71
2023/10/17 13:33:45;;;;;;;1999.90;999.90;;;13.20;99.90;;;;;;5075955;28;20044;-72
2023/10/17 13:36:11;;;;;;;1999.90;999.90;;;13.10;99.90;;;;;;5094355;28;20085;-71
2023/10/17 13:38:40;;;;;;;1999.90;999.90;;;13.00;99.90;;;;;;5075861;28;20029;-72
2023/10/17 13:41:06;;;;;;;1999.90;999.90;;;13.00;99.90;;;;;;5094338;28;20033;-72
2023/10/17 13:43:36;;;;;;;1999.90;999.90;;;13.00;99.90;;;;;;5093956;28;20087;-73
2023/10/17 13:46:14;;;;;;;1999.90;999.90;;;13.00;99.90;;;;;;5093708;28;20112;-72
2023/10/17 13:48:50;;;;;;;1999.90;999.90;;;13.10;99.90;;;;;;5094055;28;20484;-72
2023/10/17 13:51:17;;;;;;;1999.90;999.90;;;13.10;99.90;;;;;;5094341;28;20029;-74
2023/10/17 13:53:46;;;;;;;1999.90;999.90;;;13.00;99.90;;;;;;5075557;28;20448;-73
2023/10/17 13:56:12;;;;;;;1999.90;999.90;;;13.00;99.90;;;;;;5094086;28;20513;-72
2023/10/17 13:58:38;;;;;;;1999.90;999.90;;;13.00;99.90;;;;;;5094266;28;20036;-72
2023/10/17 14:01:27;;;;;;;1999.90;999.90;;;12.90;99.90;;;;;;5094169;28;20033;-72
2023/10/17 14:03:50;;;;;;;1999.90;999.90;;;12.70;99.90;;;;;;5093582;28;20040;-72
2023/10/17 14:06:16;;;;;;;1999.90;999.90;;;12.50;99.90;;;;;;5093976;28;20039;-72
2023/10/17 14:08:42;;;;;;;1999.90;999.90;;;12.50;99.90;;;;;;5093971;28;20051;-71
2023/10/17 14:11:08;;;;;;;1999.90;999.90;;;12.50;99.90;;;;;;5075281;28;20033;-72
2023/10/17 14:13:34;;;;;;;1999.90;999.90;;;12.40;99.90;;;;;;5075266;28;20032;-72
2023/10/17 14:16:00;;;;;;;1999.90;999.90;;;12.40;99.90;;;;;;5093813;28;20041;-71
2023/10/17 14:18:40;;;;;;;1999.90;999.90;;;12.30;99.90;;;;;;5094075;28;20386;-72
2023/10/17 14:21:16;;;;;;;1999.90;999.90;;;12.50;99.90;;;;;;5094131;28;20029;-74
2023/10/17 14:23:57;;;;;;;1999.90;999.90;;;12.40;99.90;;;;;;5093428;28;20036;-78
2023/10/17 14:26:30;;;;;;;1999.90;999.90;;;12.30;99.90;;;;;;5055991;28;20108;-72
2023/10/17 14:29:02;;;;;;;1999.90;999.90;;;12.20;99.90;;;;;;5075386;28;20409;-73
2023/10/17 14:31:32;;;;;;;1999.90;999.90;;;12.20;99.90;;;;;;5058084;28;20915;-74
2023/10/17 14:33:59;;;;;;;1999.90;999.90;;;12.20;99.90;;;;;;5102421;28;20054;-76
2023/10/17 14:36:26;;;;;;;1999.90;999.90;;;12.20;99.90;;;;;;5096467;28;20033;-73